createdAt,value
2018-12-15T00:01:25.941Z,54.70
2018-12-15T00:03:53.400Z,54.70
2018-12-15T00:06:20.839Z,54.70
2018-12-15T00:08:48.286Z,54.90
2018-12-15T00:11:15.727Z,54.90
2018-12-15T00:13:43.287Z,55.00
2018-12-15T00:16:10.756Z,54.90
2018-12-15T00:18:38.188Z,55.00
2018-12-15T00:21:05.644Z,54.90
2018-12-15T00:23:33.092Z,55.00
2018-12-15T00:26:01.227Z,55.20
2018-12-15T00:28:28.683Z,55.20
2018-12-15T00:30:56.111Z,55.00
2018-12-15T00:33:23.687Z,55.00
2018-12-15T00:35:51.123Z,55.00
2018-12-15T00:38:18.609Z,55.10
2018-12-15T00:40:46.050Z,54.90
2018-12-15T00:43:13.500Z,54.80
2018-12-15T00:45:40.940Z,54.70
2018-12-15T00:48:08.381Z,55.00
2018-12-15T00:50:35.828Z,55.10
2018-12-15T00:53:03.292Z,54.70
2018-12-15T00:55:30.716Z,54.70
2018-12-15T00:57:58.160Z,54.80
2018-12-15T01:00:25.592Z,54.90
2018-12-15T01:02:53.064Z,54.90
2018-12-15T01:05:20.544Z,54.90
2018-12-15T01:07:47.985Z,54.80
2018-12-15T01:10:15.412Z,54.90
2018-12-15T01:12:42.861Z,54.80
2018-12-15T01:15:10.293Z,54.80
2018-12-15T01:17:37.748Z,54.90
2018-12-15T01:20:05.426Z,55.00
2018-12-15T01:22:32.869Z,54.80
2018-12-15T01:25:00.312Z,55.00
2018-12-15T01:27:27.755Z,55.10
2018-12-15T01:29:55.188Z,54.90
2018-12-15T01:32:22.640Z,55.20
2018-12-15T01:34:50.072Z,55.30
2018-12-15T01:37:17.530Z,55.50
2018-12-15T01:39:44.974Z,55.40
2018-12-15T01:42:12.435Z,55.60
2018-12-15T01:44:39.878Z,55.60
2018-12-15T01:47:07.323Z,55.70
2018-12-15T01:49:34.752Z,55.40
2018-12-15T01:52:02.200Z,55.70
2018-12-15T01:54:29.633Z,55.70
2018-12-15T01:56:57.080Z,55.80
2018-12-15T01:59:24.519Z,55.90
2018-12-15T02:01:51.985Z,55.90
2018-12-15T02:04:19.422Z,55.90
2018-12-15T02:06:46.850Z,56.10
2018-12-15T02:09:14.295Z,56.00
2018-12-15T02:11:41.751Z,56.00
2018-12-15T02:14:09.183Z,55.90
2018-12-15T02:16:36.624Z,55.90
2018-12-15T02:19:04.168Z,56.00
2018-12-15T02:21:31.618Z,55.90
2018-12-15T02:23:59.160Z,55.80
2018-12-15T02:26:26.594Z,55.70
2018-12-15T02:28:54.088Z,55.70
2018-12-15T02:31:21.529Z,55.80
2018-12-15T02:33:50.450Z,55.80
2018-12-15T02:36:17.933Z,55.80
2018-12-15T02:38:45.375Z,55.60
2018-12-15T02:41:12.808Z,55.60
2018-12-15T02:43:40.271Z,55.70
2018-12-15T02:46:07.705Z,55.80
2018-12-15T02:48:35.169Z,55.60
2018-12-15T02:51:02.622Z,55.60
2018-12-15T02:53:30.148Z,55.70
2018-12-15T02:55:58.647Z,55.70
2018-12-15T02:58:26.318Z,55.60
2018-12-15T03:00:53.771Z,55.50
2018-12-15T03:03:21.234Z,55.30
2018-12-15T03:05:48.757Z,55.40
2018-12-15T03:08:16.204Z,55.40
2018-12-15T03:10:43.636Z,55.80
2018-12-15T03:13:11.102Z,55.80
2018-12-15T03:15:38.549Z,56.00
2018-12-15T03:18:06.004Z,55.90
2018-12-15T03:20:33.443Z,56.00
2018-12-15T03:23:00.909Z,55.90
2018-12-15T03:25:28.343Z,55.80
2018-12-15T03:27:55.788Z,55.50
2018-12-15T03:30:23.231Z,55.60
2018-12-15T03:32:50.661Z,55.60
2018-12-15T03:35:18.182Z,55.50
2018-12-15T03:37:45.620Z,55.60
2018-12-15T03:40:13.055Z,56.50
2018-12-15T03:42:40.514Z,55.80
2018-12-15T03:45:08.031Z,55.70
2018-12-15T03:47:35.472Z,55.60
2018-12-15T03:50:02.939Z,55.30
2018-12-15T03:52:30.472Z,55.50
2018-12-15T03:54:58.116Z,55.30
2018-12-15T03:57:25.544Z,55.20
2018-12-15T03:59:53.032Z,55.20
2018-12-15T04:02:20.507Z,55.30
2018-12-15T04:04:48.088Z,55.20
2018-12-15T04:07:15.545Z,55.10
2018-12-15T04:09:43.005Z,55.30
2018-12-15T04:12:10.430Z,55.20
2018-12-15T04:14:37.880Z,55.10
2018-12-15T04:17:05.324Z,54.80
2018-12-15T04:19:32.772Z,54.80
2018-12-15T04:22:12.157Z,54.90
2018-12-15T04:24:39.617Z,54.70
2018-12-15T04:27:07.079Z,54.50
2018-12-15T04:29:34.526Z,54.70
2018-12-15T04:32:02.004Z,54.70
2018-12-15T04:34:29.661Z,54.70
2018-12-15T04:36:57.112Z,54.50
2018-12-15T04:39:24.596Z,54.40
2018-12-15T04:41:52.055Z,54.10
2018-12-15T04:44:19.488Z,54.00
2018-12-15T04:46:48.297Z,53.80
2018-12-15T04:49:15.734Z,54.10
2018-12-15T04:51:43.168Z,54.10
2018-12-15T04:54:10.628Z,53.80
2018-12-15T04:56:38.071Z,53.80
2018-12-15T04:59:05.540Z,53.80
2018-12-15T05:01:32.973Z,53.70
2018-12-15T05:04:00.430Z,53.60
2018-12-15T05:06:27.882Z,53.50
2018-12-15T05:08:55.322Z,53.20
2018-12-15T05:11:22.751Z,53.30
2018-12-15T05:13:50.188Z,53.00
2018-12-15T05:16:17.632Z,52.60
2018-12-15T05:18:45.066Z,52.80
2018-12-15T05:21:12.499Z,52.60
2018-12-15T05:23:39.937Z,52.80
2018-12-15T05:26:07.369Z,52.50
2018-12-15T05:28:34.817Z,52.90
2018-12-15T05:31:02.273Z,52.20
2018-12-15T05:33:29.722Z,52.10
2018-12-15T05:35:57.174Z,51.80
2018-12-15T05:38:24.616Z,51.50
2018-12-15T05:40:52.091Z,51.60
2018-12-15T05:43:19.534Z,51.70
2018-12-15T05:45:46.988Z,51.80
2018-12-15T05:48:14.436Z,51.60
2018-12-15T05:50:41.893Z,51.80
2018-12-15T05:53:09.395Z,51.80
2018-12-15T05:55:36.840Z,51.60
2018-12-15T05:58:04.277Z,51.40
2018-12-15T06:00:31.722Z,51.40
2018-12-15T06:02:59.165Z,51.40
2018-12-15T06:05:26.624Z,51.20
2018-12-15T06:07:54.056Z,50.90
2018-12-15T06:10:21.762Z,51.10
2018-12-15T06:12:49.207Z,51.10
2018-12-15T06:15:16.652Z,51.20
2018-12-15T06:17:44.092Z,51.20
2018-12-15T06:20:11.540Z,51.00
2018-12-15T06:22:39.008Z,50.90
2018-12-15T06:25:06.456Z,50.90
2018-12-15T06:27:33.889Z,51.00
2018-12-15T06:30:01.327Z,51.20
2018-12-15T06:32:28.785Z,51.30
2018-12-15T06:34:56.267Z,51.20
2018-12-15T06:37:23.720Z,51.80
2018-12-15T06:39:51.174Z,51.00
2018-12-15T06:42:18.607Z,51.00
2018-12-15T06:44:46.055Z,50.80
2018-12-15T06:47:13.584Z,50.50
2018-12-15T06:49:41.020Z,51.30
2018-12-15T06:52:08.454Z,52.00
2018-12-15T06:54:35.926Z,51.10
2018-12-15T06:57:03.403Z,50.90
2018-12-15T06:59:30.915Z,50.70
2018-12-15T07:01:58.360Z,50.10
2018-12-15T07:04:25.847Z,50.20
2018-12-15T07:06:53.371Z,50.20
2018-12-15T07:09:20.805Z,50.10
2018-12-15T07:11:48.339Z,50.00
2018-12-15T07:14:15.776Z,49.60
2018-12-15T07:16:43.219Z,49.60
2018-12-15T07:19:10.639Z,49.60
2018-12-15T07:21:38.119Z,49.50
2018-12-15T07:24:05.584Z,49.20
2018-12-15T07:26:33.031Z,49.40
2018-12-15T07:29:00.612Z,49.50
2018-12-15T07:31:28.080Z,49.50
2018-12-15T07:33:55.559Z,49.20
2018-12-15T07:36:23.034Z,48.90
2018-12-15T07:38:50.588Z,49.00
2018-12-15T07:41:18.037Z,49.40
2018-12-15T07:43:45.584Z,48.90
2018-12-15T07:46:13.024Z,49.30
2018-12-15T07:48:40.467Z,49.80
2018-12-15T07:51:08.128Z,49.80
2018-12-15T07:53:35.656Z,49.50
2018-12-15T07:56:03.161Z,49.50
2018-12-15T07:58:30.587Z,49.70
2018-12-15T08:00:58.045Z,49.50
2018-12-15T08:03:25.485Z,49.50
2018-12-15T08:05:52.932Z,49.50
2018-12-15T08:08:20.384Z,49.70
2018-12-15T08:10:53.448Z,49.90
2018-12-15T08:13:25.704Z,50.60
2018-12-15T08:15:53.186Z,50.00
2018-12-15T08:18:20.745Z,50.10
2018-12-15T08:20:48.200Z,50.30
2018-12-15T08:23:15.672Z,50.10
2018-12-15T08:25:43.105Z,50.00
2018-12-15T08:28:10.540Z,50.60
2018-12-15T08:30:37.997Z,50.60
2018-12-15T08:33:06.228Z,50.50
2018-12-15T08:35:33.682Z,50.60
2018-12-15T08:38:01.117Z,50.80
2018-12-15T08:40:28.555Z,50.70
2018-12-15T08:42:55.989Z,50.70
2018-12-15T08:45:23.451Z,50.80
2018-12-15T08:47:50.932Z,51.00
2018-12-15T08:50:18.469Z,50.90
2018-12-15T08:52:45.931Z,51.10
2018-12-15T08:55:13.383Z,51.40
2018-12-15T08:57:40.836Z,51.00
2018-12-15T09:00:08.266Z,51.40
2018-12-15T09:02:35.736Z,51.30
2018-12-15T09:05:03.181Z,51.00
2018-12-15T09:07:30.631Z,51.30
2018-12-15T09:09:58.082Z,51.40
2018-12-15T09:12:25.523Z,51.10
2018-12-15T09:14:53.027Z,51.40
2018-12-15T09:17:20.469Z,51.50
2018-12-15T09:19:47.916Z,51.30
2018-12-15T09:22:15.373Z,51.40
2018-12-15T09:24:42.805Z,51.30
2018-12-15T09:27:10.253Z,50.70
2018-12-15T09:29:37.685Z,51.20
2018-12-15T09:32:05.161Z,51.10
2018-12-15T09:34:32.595Z,50.70
2018-12-15T09:37:00.056Z,50.70
2018-12-15T09:39:27.507Z,50.90
2018-12-15T09:41:54.977Z,50.70
2018-12-15T09:44:22.403Z,51.00
2018-12-15T09:46:49.885Z,50.90
2018-12-15T09:49:17.961Z,50.80
2018-12-15T09:51:45.693Z,51.00
2018-12-15T09:54:13.146Z,51.00
2018-12-15T09:56:40.629Z,50.40
2018-12-15T09:59:08.082Z,50.40
2018-12-15T10:01:35.605Z,50.40
2018-12-15T10:04:03.097Z,50.30
2018-12-15T10:06:30.539Z,49.90
2018-12-15T10:08:58.012Z,50.00
2018-12-15T10:11:25.461Z,50.10
2018-12-15T10:13:52.926Z,49.90
2018-12-15T10:16:20.386Z,50.20
2018-12-15T10:18:47.901Z,50.50
2018-12-15T10:21:15.384Z,50.50
2018-12-15T10:23:42.857Z,49.60
2018-12-15T10:26:10.296Z,50.00
2018-12-15T10:28:37.783Z,49.30
2018-12-15T10:34:15.184Z,49.20
2018-12-15T10:36:42.639Z,49.70
2018-12-15T10:39:10.075Z,49.80
2018-12-15T10:41:37.531Z,49.60
2018-12-15T10:44:04.964Z,49.20
2018-12-15T10:46:32.418Z,49.00
2018-12-15T10:48:59.879Z,49.00
2018-12-15T10:51:27.334Z,48.80
2018-12-15T10:53:55.122Z,48.70
2018-12-15T10:56:22.579Z,48.90
2018-12-15T10:58:50.018Z,48.90
2018-12-15T11:01:21.729Z,49.20
2018-12-15T11:03:49.201Z,48.80
2018-12-15T11:06:16.627Z,48.90
2018-12-15T11:08:44.101Z,48.90
2018-12-15T11:11:11.530Z,49.10
2018-12-15T11:13:38.975Z,49.20
2018-12-15T11:16:06.432Z,49.50
2018-12-15T11:18:33.891Z,50.00
2018-12-15T11:21:01.337Z,49.20
2018-12-15T11:23:28.780Z,48.90
2018-12-15T11:25:56.225Z,48.90
2018-12-15T11:28:23.683Z,48.90
2018-12-15T11:30:51.123Z,48.80
2018-12-15T11:33:18.622Z,48.50
2018-12-15T11:35:46.171Z,48.60
2018-12-15T11:38:13.656Z,49.30
2018-12-15T11:40:41.108Z,48.90
2018-12-15T11:43:08.573Z,48.80
2018-12-15T11:45:36.060Z,48.70
2018-12-15T11:48:03.505Z,48.90
2018-12-15T11:50:30.944Z,48.90
2018-12-15T11:52:58.401Z,48.50
2018-12-15T11:55:25.866Z,48.50
2018-12-15T11:57:53.336Z,48.50
2018-12-15T12:00:20.814Z,48.80
2018-12-15T12:02:48.275Z,49.00
2018-12-15T12:05:15.731Z,49.00
2018-12-15T12:07:43.199Z,48.60
2018-12-15T12:10:10.969Z,48.40
2018-12-15T12:12:38.421Z,48.50
2018-12-15T12:15:05.892Z,48.50
2018-12-15T12:17:33.339Z,48.50
2018-12-15T12:20:00.801Z,48.00
2018-12-15T12:22:28.291Z,48.20
2018-12-15T12:24:55.738Z,48.00
2018-12-15T12:27:23.172Z,48.20
2018-12-15T12:29:50.625Z,48.00
2018-12-15T12:32:18.153Z,48.00
2018-12-15T12:34:45.600Z,47.80
2018-12-15T12:37:13.057Z,48.10
2018-12-15T12:39:40.509Z,48.00
2018-12-15T12:42:07.953Z,47.80
2018-12-15T12:44:35.409Z,48.00
2018-12-15T12:47:02.853Z,48.20
2018-12-15T12:49:30.309Z,48.40
2018-12-15T12:51:57.739Z,48.30
2018-12-15T12:54:25.193Z,48.10
2018-12-15T12:56:52.642Z,48.30
2018-12-15T12:59:20.092Z,48.20
2018-12-15T13:01:47.528Z,48.20
2018-12-15T13:04:14.975Z,48.30
2018-12-15T13:06:42.423Z,48.30
2018-12-15T13:09:09.877Z,48.30
2018-12-15T13:11:37.324Z,48.50
2018-12-15T13:14:04.957Z,48.90
2018-12-15T13:16:32.404Z,48.30
2018-12-15T13:18:59.839Z,48.70
2018-12-15T13:21:27.280Z,48.30
2018-12-15T13:23:54.728Z,48.00
2018-12-15T13:26:22.176Z,48.20
2018-12-15T13:28:49.723Z,48.10
2018-12-15T13:31:17.157Z,48.50
2018-12-15T13:33:44.612Z,48.80
2018-12-15T13:36:12.873Z,48.70
2018-12-15T13:38:40.450Z,48.30
2018-12-15T13:41:07.876Z,48.30
2018-12-15T13:43:35.316Z,48.40
2018-12-15T13:46:02.763Z,47.90
2018-12-15T13:48:30.231Z,48.90
2018-12-15T13:50:57.680Z,48.20
2018-12-15T13:53:25.135Z,48.40
2018-12-15T13:55:52.620Z,48.50
2018-12-15T13:58:20.061Z,48.50
2018-12-15T14:00:47.503Z,48.50
2018-12-15T14:03:15.070Z,48.50
2018-12-15T14:05:42.620Z,48.80
2018-12-15T14:08:10.080Z,48.70
2018-12-15T14:10:37.545Z,48.90
2018-12-15T14:13:04.986Z,48.50
2018-12-15T14:15:32.427Z,48.40
2018-12-15T14:17:59.864Z,48.80
2018-12-15T14:20:27.320Z,48.40
2018-12-15T14:22:54.755Z,48.50
2018-12-15T14:25:22.216Z,48.20
2018-12-15T14:27:49.640Z,48.00
2018-12-15T14:30:17.099Z,48.70
2018-12-15T14:32:44.528Z,48.20
2018-12-15T14:35:11.983Z,48.70
2018-12-15T14:37:39.416Z,48.40
2018-12-15T14:40:07.705Z,48.20
2018-12-15T14:42:35.160Z,48.40
2018-12-15T14:45:02.658Z,48.70
2018-12-15T14:47:30.100Z,48.70
2018-12-15T14:49:57.551Z,48.70
2018-12-15T14:52:25.020Z,48.30
2018-12-15T14:54:52.494Z,48.30
2018-12-15T14:57:21.886Z,48.40
2018-12-15T14:59:49.329Z,48.20
2018-12-15T15:02:16.825Z,48.30
2018-12-15T15:04:44.267Z,48.50
2018-12-15T15:07:11.701Z,48.70
2018-12-15T15:09:39.144Z,48.70
2018-12-15T15:12:06.596Z,48.90
2018-12-15T15:14:34.077Z,49.40
2018-12-15T15:17:01.524Z,49.30
2018-12-15T15:19:28.972Z,49.30
2018-12-15T15:21:56.419Z,49.30
2018-12-15T15:24:23.887Z,49.00
2018-12-15T15:26:51.318Z,49.00
2018-12-15T15:29:18.807Z,49.00
2018-12-15T15:31:46.245Z,49.10
2018-12-15T15:34:13.711Z,48.70
2018-12-15T15:36:41.146Z,48.80
2018-12-15T15:39:08.603Z,48.70
2018-12-15T15:41:36.092Z,49.10
2018-12-15T15:44:03.529Z,48.90
2018-12-15T15:46:30.986Z,48.90
2018-12-15T15:48:58.428Z,49.00
2018-12-15T15:51:25.896Z,49.10
2018-12-15T15:53:53.334Z,49.40
2018-12-15T15:56:20.788Z,49.10
2018-12-15T15:58:48.344Z,49.20
2018-12-15T16:01:15.841Z,49.60
2018-12-15T16:03:43.304Z,49.70
2018-12-15T16:06:10.768Z,49.60
2018-12-15T16:08:38.263Z,49.50
2018-12-15T16:11:05.735Z,49.90
2018-12-15T16:13:33.217Z,50.30
2018-12-15T16:16:00.788Z,49.30
2018-12-15T16:18:28.255Z,49.60
2018-12-15T16:20:55.770Z,49.30
2018-12-15T16:23:23.215Z,49.40
2018-12-15T16:25:50.668Z,49.30
2018-12-15T16:28:18.128Z,49.50
2018-12-15T16:30:45.587Z,49.90
2018-12-15T16:33:13.117Z,49.90
2018-12-15T16:35:40.555Z,49.50
2018-12-15T16:38:08.025Z,49.80
2018-12-15T16:40:35.467Z,49.60
2018-12-15T16:43:03.005Z,50.10
2018-12-15T16:45:30.472Z,49.70
2018-12-15T16:47:57.912Z,49.90
2018-12-15T16:50:25.385Z,50.10
2018-12-15T16:52:52.960Z,49.90
2018-12-15T16:55:20.417Z,50.00
2018-12-15T16:57:47.875Z,49.90
2018-12-15T17:00:15.420Z,50.00
2018-12-15T17:02:42.864Z,49.80
2018-12-15T17:05:10.344Z,49.90
2018-12-15T17:07:37.798Z,49.80
2018-12-15T17:10:06.281Z,50.30
2018-12-15T17:12:33.722Z,50.10
2018-12-15T17:15:01.192Z,50.90
2018-12-15T17:17:28.644Z,50.50
2018-12-15T17:19:56.080Z,50.40
2018-12-15T17:22:23.531Z,50.60
2018-12-15T17:24:50.979Z,50.40
2018-12-15T17:27:26.587Z,50.30
2018-12-15T17:29:54.264Z,50.50
2018-12-15T17:32:21.714Z,50.40
2018-12-15T17:34:49.171Z,50.70
2018-12-15T17:37:16.616Z,50.60
2018-12-15T17:39:44.077Z,50.70
2018-12-15T17:42:11.526Z,50.70
2018-12-15T17:44:38.988Z,51.10
2018-12-15T17:47:06.518Z,51.00
2018-12-15T17:49:33.937Z,50.80
2018-12-15T17:52:01.380Z,51.00
2018-12-15T17:54:28.837Z,50.90
2018-12-15T17:56:56.293Z,51.10
2018-12-15T17:59:23.764Z,51.70
2018-12-15T18:01:51.372Z,51.00
2018-12-15T18:04:18.846Z,51.10
2018-12-15T18:06:46.330Z,51.20
2018-12-15T18:09:13.785Z,51.50
2018-12-15T18:11:41.254Z,52.30
2018-12-15T18:14:08.724Z,51.80
2018-12-15T18:16:36.176Z,51.80
2018-12-15T18:19:03.657Z,51.80
2018-12-15T18:21:31.120Z,51.60
2018-12-15T18:23:58.588Z,51.90
2018-12-15T18:26:26.073Z,52.50
2018-12-15T18:28:53.509Z,51.90
2018-12-15T18:31:20.947Z,52.10
2018-12-15T18:33:48.402Z,52.50
2018-12-15T18:36:15.908Z,52.80
2018-12-15T18:38:43.360Z,52.40
2018-12-15T18:41:10.797Z,52.40
2018-12-15T18:43:38.264Z,52.60
2018-12-15T18:46:05.708Z,52.50
2018-12-15T18:48:33.145Z,52.40
2018-12-15T18:51:00.601Z,52.30
2018-12-15T18:53:28.039Z,52.70
2018-12-15T18:55:55.501Z,52.40
2018-12-15T18:58:22.930Z,52.90
2018-12-15T19:00:50.373Z,52.90
2018-12-15T19:03:17.828Z,53.70
2018-12-15T19:05:45.261Z,53.00
2018-12-15T19:08:12.709Z,53.10
2018-12-15T19:10:40.164Z,53.00
2018-12-15T19:13:07.608Z,53.00
2018-12-15T19:15:35.065Z,52.90
2018-12-15T19:18:02.517Z,52.80
2018-12-15T19:20:30.001Z,52.80
2018-12-15T19:22:57.554Z,52.80
2018-12-15T19:25:25.009Z,52.70
2018-12-15T19:27:52.465Z,52.80
2018-12-15T19:30:20.565Z,52.90
2018-12-15T19:32:48.266Z,53.10
2018-12-15T19:35:15.758Z,52.50
2018-12-15T19:37:43.207Z,52.80
2018-12-15T19:40:10.646Z,52.80
2018-12-15T19:42:38.197Z,53.20
2018-12-15T19:45:07.517Z,52.90
2018-12-15T19:47:35.477Z,52.70
2018-12-15T19:50:03.372Z,52.70
2018-12-15T19:52:30.872Z,53.00
2018-12-15T19:54:58.301Z,53.00
2018-12-15T19:57:25.753Z,53.40
2018-12-15T19:59:53.200Z,53.40
2018-12-15T20:02:20.653Z,53.10
2018-12-15T20:04:48.123Z,53.40
2018-12-15T20:07:15.680Z,53.10
2018-12-15T20:09:43.128Z,53.50
2018-12-15T20:12:10.575Z,53.60
2018-12-15T20:14:38.016Z,53.70
2018-12-15T20:17:05.472Z,53.40
2018-12-15T20:19:32.981Z,53.30
2018-12-15T20:22:00.467Z,53.60
2018-12-15T20:24:27.917Z,53.50
2018-12-15T20:26:55.346Z,53.60
2018-12-15T20:29:22.829Z,53.40
2018-12-15T20:31:50.303Z,53.50
2018-12-15T20:34:17.763Z,53.40
2018-12-15T20:36:45.210Z,53.30
2018-12-15T20:39:12.660Z,53.30
2018-12-15T20:41:40.114Z,53.40
2018-12-15T20:44:07.575Z,53.10
2018-12-15T20:46:35.006Z,53.00
2018-12-15T20:49:02.457Z,53.30
2018-12-15T20:51:29.894Z,53.00
2018-12-15T20:53:57.345Z,52.70
2018-12-15T20:56:24.794Z,53.20
2018-12-15T20:58:52.237Z,54.00
2018-12-15T21:01:20.020Z,53.30
2018-12-15T21:03:47.467Z,53.20
2018-12-15T21:06:14.923Z,52.80
2018-12-15T21:08:42.368Z,53.00
2018-12-15T21:11:09.812Z,52.90
2018-12-15T21:13:37.255Z,52.90
2018-12-15T21:16:04.708Z,52.60
2018-12-15T21:18:32.165Z,53.00
2018-12-15T21:20:59.616Z,53.10
2018-12-15T21:23:27.076Z,52.90
2018-12-15T21:25:54.528Z,52.70
2018-12-15T21:28:21.976Z,52.90
2018-12-15T21:30:49.499Z,53.10
2018-12-15T21:33:17.056Z,52.80
2018-12-15T21:35:44.480Z,53.00
2018-12-15T21:38:11.939Z,53.00
2018-12-15T21:40:39.384Z,52.80
2018-12-15T21:43:06.831Z,52.70
2018-12-15T21:45:34.359Z,52.50
2018-12-15T21:48:01.804Z,52.70
2018-12-15T21:50:29.250Z,52.60
2018-12-15T21:52:56.714Z,52.70
2018-12-15T21:55:24.271Z,52.80
2018-12-15T21:57:51.733Z,52.60
2018-12-15T22:00:19.169Z,52.70
2018-12-15T22:02:46.615Z,52.80
2018-12-15T22:05:14.051Z,52.40
2018-12-15T22:07:41.545Z,52.30
2018-12-15T22:10:08.974Z,52.90
2018-12-15T22:12:36.429Z,52.50
2018-12-15T22:15:04.851Z,52.10
2018-12-15T22:17:32.288Z,52.50
2018-12-15T22:19:59.727Z,52.40
2018-12-15T22:22:27.178Z,52.20
2018-12-15T22:24:54.664Z,52.30
2018-12-15T22:27:22.188Z,52.90
2018-12-15T22:29:49.645Z,52.30
2018-12-15T22:32:17.078Z,52.50
2018-12-15T22:34:44.545Z,52.30
2018-12-15T22:37:11.990Z,52.30
2018-12-15T22:39:39.447Z,52.40
2018-12-15T22:42:06.889Z,52.70
2018-12-15T22:44:34.344Z,52.90
2018-12-15T22:47:01.768Z,52.80
2018-12-15T22:49:29.211Z,53.00
2018-12-15T22:51:56.652Z,52.50
2018-12-15T22:54:24.111Z,53.20
2018-12-15T22:56:51.547Z,52.90
2018-12-15T22:59:18.987Z,53.20
2018-12-15T23:01:46.444Z,53.00
2018-12-15T23:04:14.455Z,52.70
2018-12-15T23:06:41.922Z,52.50
2018-12-15T23:09:09.371Z,52.00
2018-12-15T23:11:36.808Z,52.90
2018-12-15T23:14:04.267Z,53.00
2018-12-15T23:16:31.771Z,52.90
2018-12-15T23:18:59.228Z,53.10
2018-12-15T23:21:26.663Z,52.90
2018-12-15T23:23:54.110Z,52.80
2018-12-15T23:26:21.555Z,53.10
2018-12-15T23:28:49.037Z,53.40
2018-12-15T23:31:16.481Z,53.90
2018-12-15T23:33:43.925Z,53.10
2018-12-15T23:36:11.393Z,53.50
2018-12-15T23:38:38.864Z,53.00
2018-12-15T23:41:06.302Z,53.30
2018-12-15T23:43:33.774Z,53.40
2018-12-15T23:46:01.270Z,53.20
2018-12-15T23:48:28.724Z,53.10
2018-12-15T23:50:56.163Z,53.10
2018-12-15T23:53:23.608Z,53.20
2018-12-15T23:55:51.056Z,53.00
2018-12-15T23:58:18.507Z,52.70
